DTTF/GAF METAR and TAF weather

Enter ICAO airport designator
Station Type Date Time Source
DTTF METAR 2021/09/24 00:00 UTC NOAA

DTTF 240000Z 06008KT 8000 NSC 24/20 Q1018 NOSIG


Station Type Date Time Source
DTTF Decoded METAR 2021/09/24 00:00 UTC NOAA

Gafsa, Tunisia (DTTF) 34-25N 008-49E 314M
Sep 23, 2021 - 08:00 PM EDT / 2021.09.24 0000 UTC
Wind: from the ENE (060 degrees) at 9 MPH (8 KT):0
Visibility: 4 mile(s):0
Temperature: 75 F (24 C)
Dew Point: 68 F (20 C)
Relative Humidity: 78%
Pressure (altimeter): 30.06 in. Hg (1018 hPa)
ob: DTTF 240000Z 06008KT 8000 NSC 24/20 Q1018 NOSIG
cycle: 0

Station Type Date Time Source
DTTF TAF 2021/09/17 13:39 UTC NOAA

TAF DTTF 171200Z 1713/1801 21010KT 8000 NSC
BECMG 1715/1717 VRB03KT

Example: see airport list